sensor_id;sensor_type;location;lat;lon;timestamp;temperature;humidity
5134;DHT22;2585;48.696;10.066;2023-03-01T00:00:14;-3.00;1.80
5134;DHT22;2585;48.696;10.066;2023-03-01T00:02:41;-3.20;1.70
5134;DHT22;2585;48.696;10.066;2023-03-01T00:05:08;-3.30;3.00
5134;DHT22;2585;48.696;10.066;2023-03-01T00:07:35;-3.30;4.10
5134;DHT22;2585;48.696;10.066;2023-03-01T00:10:02;-3.30;4.90
5134;DHT22;2585;48.696;10.066;2023-03-01T00:12:29;-3.40;6.60
5134;DHT22;2585;48.696;10.066;2023-03-01T00:14:55;-3.40;8.40
5134;DHT22;2585;48.696;10.066;2023-03-01T00:17:22;-3.40;9.60
5134;DHT22;2585;48.696;10.066;2023-03-01T00:19:49;-3.30;11.00
5134;DHT22;2585;48.696;10.066;2023-03-01T00:22:16;-3.30;11.30
5134;DHT22;2585;48.696;10.066;2023-03-01T00:24:42;-3.20;13.50
5134;DHT22;2585;48.696;10.066;2023-03-01T00:27:09;-3.10;14.10
5134;DHT22;2585;48.696;10.066;2023-03-01T00:29:36;-3.00;13.80
5134;DHT22;2585;48.696;10.066;2023-03-01T00:32:03;-2.80;14.00
5134;DHT22;2585;48.696;10.066;2023-03-01T00:34:29;-2.80;11.90
5134;DHT22;2585;48.696;10.066;2023-03-01T00:36:56;-2.80;10.90
5134;DHT22;2585;48.696;10.066;2023-03-01T00:39:32;-2.80;10.20
5134;DHT22;2585;48.696;10.066;2023-03-01T00:41:59;-2.80;10.30
5134;DHT22;2585;48.696;10.066;2023-03-01T00:44:26;-2.80;10.60
5134;DHT22;2585;48.696;10.066;2023-03-01T00:46:54;-2.80;11.40
5134;DHT22;2585;48.696;10.066;2023-03-01T00:49:21;-2.80;12.10
5134;DHT22;2585;48.696;10.066;2023-03-01T00:51:50;-2.70;12.30
5134;DHT22;2585;48.696;10.066;2023-03-01T00:54:17;-2.60;12.20
5134;DHT22;2585;48.696;10.066;2023-03-01T00:56:44;-2.50;12.50
5134;DHT22;2585;48.696;10.066;2023-03-01T00:59:10;-2.40;10.90
5134;DHT22;2585;48.696;10.066;2023-03-01T01:01:37;-2.30;9.90
5134;DHT22;2585;48.696;10.066;2023-03-01T01:04:07;-2.30;9.40
5134;DHT22;2585;48.696;10.066;2023-03-01T01:06:43;-2.20;8.20
5134;DHT22;2585;48.696;10.066;2023-03-01T01:09:14;-2.10;6.60
5134;DHT22;2585;48.696;10.066;2023-03-01T01:11:47;-2.10;4.80
5134;DHT22;2585;48.696;10.066;2023-03-01T01:14:14;-2.10;4.40
5134;DHT22;2585;48.696;10.066;2023-03-01T01:16:41;-2.00;2.90
5134;DHT22;2585;48.696;10.066;2023-03-01T01:19:10;-2.00;3.00
5134;DHT22;2585;48.696;10.066;2023-03-01T01:21:37;-1.90;2.20
5134;DHT22;2585;48.696;10.066;2023-03-01T01:24:05;-1.90;1.80
5134;DHT22;2585;48.696;10.066;2023-03-01T01:26:33;-1.90;1.00
5134;DHT22;2585;48.696;10.066;2023-03-01T01:29:02;-1.80;1.00
5134;DHT22;2585;48.696;10.066;2023-03-01T01:31:29;-1.70;1.00
5134;DHT22;2585;48.696;10.066;2023-03-01T01:33:57;-1.70;1.00
5134;DHT22;2585;48.696;10.066;2023-03-01T01:36:24;-1.60;1.00
5134;DHT22;2585;48.696;10.066;2023-03-01T01:38:51;-1.70;1.00
5134;DHT22;2585;48.696;10.066;2023-03-01T01:41:19;-1.60;1.00
5134;DHT22;2585;48.696;10.066;2023-03-01T01:43:49;-1.60;1.00
5134;DHT22;2585;48.696;10.066;2023-03-01T01:46:29;-1.60;1.00
5134;DHT22;2585;48.696;10.066;2023-03-01T01:49:04;-1.50;1.00
5134;DHT22;2585;48.696;10.066;2023-03-01T01:51:37;-1.50;1.00
5134;DHT22;2585;48.696;10.066;2023-03-01T01:54:32;-1.50;1.00
5134;DHT22;2585;48.696;10.066;2023-03-01T01:57:04;-1.50;1.00
5134;DHT22;2585;48.696;10.066;2023-03-01T01:59:33;-1.50;1.00
5134;DHT22;2585;48.696;10.066;2023-03-01T02:02:02;-1.50;1.00
5134;DHT22;2585;48.696;10.066;2023-03-01T02:04:31;-1.50;1.00
5134;DHT22;2585;48.696;10.066;2023-03-01T02:07:04;-1.50;1.00
5134;DHT22;2585;48.696;10.066;2023-03-01T02:09:34;-1.50;1.00
5134;DHT22;2585;48.696;10.066;2023-03-01T02:12:03;-1.40;1.00
5134;DHT22;2585;48.696;10.066;2023-03-01T02:14:30;-1.40;1.00
5134;DHT22;2585;48.696;10.066;2023-03-01T02:16:57;-1.40;1.00
5134;DHT22;2585;48.696;10.066;2023-03-01T02:22:27;-1.40;1.00
5134;DHT22;2585;48.696;10.066;2023-03-01T02:27:49;-1.40;1.00
5134;DHT22;2585;48.696;10.066;2023-03-01T02:30:19;-1.40;1.00
5134;DHT22;2585;48.696;10.066;2023-03-01T02:32:47;-1.40;1.00
5134;DHT22;2585;48.696;10.066;2023-03-01T02:35:16;-1.40;1.00
5134;DHT22;2585;48.696;10.066;2023-03-01T02:37:44;-1.40;1.00
5134;DHT22;2585;48.696;10.066;2023-03-01T02:40:16;-1.40;1.00
5134;DHT22;2585;48.696;10.066;2023-03-01T02:42:50;-1.40;1.00
5134;DHT22;2585;48.696;10.066;2023-03-01T02:45:18;-1.40;1.00
5134;DHT22;2585;48.696;10.066;2023-03-01T02:47:45;-1.40;1.00
5134;DHT22;2585;48.696;10.066;2023-03-01T02:53:05;-1.40;1.00
5134;DHT22;2585;48.696;10.066;2023-03-01T02:55:34;-1.40;1.00
5134;DHT22;2585;48.696;10.066;2023-03-01T02:58:02;-1.40;1.00
5134;DHT22;2585;48.696;10.066;2023-03-01T03:00:35;-1.40;1.00
5134;DHT22;2585;48.696;10.066;2023-03-01T03:03:02;-1.40;1.00
5134;DHT22;2585;48.696;10.066;2023-03-01T03:05:30;-1.40;1.00
5134;DHT22;2585;48.696;10.066;2023-03-01T03:07:58;-1.40;1.00
5134;DHT22;2585;48.696;10.066;2023-03-01T03:10:31;-1.40;1.00
5134;DHT22;2585;48.696;10.066;2023-03-01T03:13:04;-1.50;1.00
5134;DHT22;2585;48.696;10.066;2023-03-01T03:15:32;-1.50;1.00
5134;DHT22;2585;48.696;10.066;2023-03-01T03:18:04;-1.50;1.00
5134;DHT22;2585;48.696;10.066;2023-03-01T03:20:32;-1.50;1.00
5134;DHT22;2585;48.696;10.066;2023-03-01T03:23:00;-1.50;1.00
5134;DHT22;2585;48.696;10.066;2023-03-01T03:25:28;-1.50;1.00
5134;DHT22;2585;48.696;10.066;2023-03-01T03:27:56;-1.50;1.00
5134;DHT22;2585;48.696;10.066;2023-03-01T03:30:28;-1.50;1.00
5134;DHT22;2585;48.696;10.066;2023-03-01T03:32:56;-1.50;1.00
5134;DHT22;2585;48.696;10.066;2023-03-01T03:35:29;-1.50;1.00
5134;DHT22;2585;48.696;10.066;2023-03-01T03:38:01;-1.50;1.00
5134;DHT22;2585;48.696;10.066;2023-03-01T03:40:48;-1.50;1.00
5134;DHT22;2585;48.696;10.066;2023-03-01T03:43:17;-1.50;1.00
5134;DHT22;2585;48.696;10.066;2023-03-01T03:45:45;-1.50;1.00
5134;DHT22;2585;48.696;10.066;2023-03-01T03:48:13;-1.50;1.00
5134;DHT22;2585;48.696;10.066;2023-03-01T03:50:40;-1.50;1.00
5134;DHT22;2585;48.696;10.066;2023-03-01T03:53:11;-1.50;1.00
5134;DHT22;2585;48.696;10.066;2023-03-01T03:55:38;-1.50;1.00
5134;DHT22;2585;48.696;10.066;2023-03-01T03:58:08;-1.50;1.00
5134;DHT22;2585;48.696;10.066;2023-03-01T04:00:38;-1.50;1.00
5134;DHT22;2585;48.696;10.066;2023-03-01T04:03:05;-1.50;1.00
5134;DHT22;2585;48.696;10.066;2023-03-01T04:05:32;-1.50;1.00
5134;DHT22;2585;48.696;10.066;2023-03-01T04:07:59;-1.50;1.00
5134;DHT22;2585;48.696;10.066;2023-03-01T04:10:34;-1.50;1.00
5134;DHT22;2585;48.696;10.066;2023-03-01T04:13:02;-1.50;1.00
5134;DHT22;2585;48.696;10.066;2023-03-01T04:15:30;-1.50;1.00
5134;DHT22;2585;48.696;10.066;2023-03-01T04:17:58;-1.50;1.00
5134;DHT22;2585;48.696;10.066;2023-03-01T04:20:28;-1.40;1.00
5134;DHT22;2585;48.696;10.066;2023-03-01T04:23:04;-1.40;1.00
5134;DHT22;2585;48.696;10.066;2023-03-01T04:25:39;-1.40;1.00
5134;DHT22;2585;48.696;10.066;2023-03-01T04:28:07;-1.40;1.00
5134;DHT22;2585;48.696;10.066;2023-03-01T04:30:35;-1.40;1.00
5134;DHT22;2585;48.696;10.066;2023-03-01T04:33:06;-1.40;1.00
5134;DHT22;2585;48.696;10.066;2023-03-01T04:35:34;-1.50;1.00
5134;DHT22;2585;48.696;10.066;2023-03-01T04:38:02;-1.50;1.00
5134;DHT22;2585;48.696;10.066;2023-03-01T04:40:29;-1.40;1.00
5134;DHT22;2585;48.696;10.066;2023-03-01T04:42:56;-1.40;1.00
5134;DHT22;2585;48.696;10.066;2023-03-01T04:45:23;-1.40;1.00
5134;DHT22;2585;48.696;10.066;2023-03-01T04:47:50;-1.50;1.00
5134;DHT22;2585;48.696;10.066;2023-03-01T04:50:19;-1.50;1.00
5134;DHT22;2585;48.696;10.066;2023-03-01T04:52:51;-1.50;1.00
5134;DHT22;2585;48.696;10.066;2023-03-01T04:55:18;-1.50;1.00
5134;DHT22;2585;48.696;10.066;2023-03-01T04:57:45;-1.50;1.00
5134;DHT22;2585;48.696;10.066;2023-03-01T05:00:13;-1.50;1.00
5134;DHT22;2585;48.696;10.066;2023-03-01T05:03:00;-1.50;1.00
5134;DHT22;2585;48.696;10.066;2023-03-01T05:05:36;-1.50;1.00
5134;DHT22;2585;48.696;10.066;2023-03-01T05:08:05;-1.50;1.00
5134;DHT22;2585;48.696;10.066;2023-03-01T05:10:34;-1.60;1.00
5134;DHT22;2585;48.696;10.066;2023-03-01T05:13:03;-1.60;1.00
5134;DHT22;2585;48.696;10.066;2023-03-01T05:15:31;-1.70;1.00
5134;DHT22;2585;48.696;10.066;2023-03-01T05:17:59;-1.70;1.00
5134;DHT22;2585;48.696;10.066;2023-03-01T05:20:27;-1.70;1.00
5134;DHT22;2585;48.696;10.066;2023-03-01T05:22:59;-1.70;1.00
5134;DHT22;2585;48.696;10.066;2023-03-01T05:25:26;-1.80;1.00
5134;DHT22;2585;48.696;10.066;2023-03-01T05:27:53;-1.80;1.00
5134;DHT22;2585;48.696;10.066;2023-03-01T05:30:20;-1.80;1.00
5134;DHT22;2585;48.696;10.066;2023-03-01T05:32:50;-1.80;1.00
5134;DHT22;2585;48.696;10.066;2023-03-01T05:35:22;-1.90;1.00
5134;DHT22;2585;48.696;10.066;2023-03-01T05:37:49;-1.90;1.00
5134;DHT22;2585;48.696;10.066;2023-03-01T05:40:21;-2.00;1.00
5134;DHT22;2585;48.696;10.066;2023-03-01T05:42:53;-2.00;1.00
5134;DHT22;2585;48.696;10.066;2023-03-01T05:45:22;-2.00;1.00
5134;DHT22;2585;48.696;10.066;2023-03-01T05:47:49;-2.10;1.00
5134;DHT22;2585;48.696;10.066;2023-03-01T05:50:20;-2.10;1.00
5134;DHT22;2585;48.696;10.066;2023-03-01T05:52:56;-2.10;1.30
5134;DHT22;2585;48.696;10.066;2023-03-01T05:55:23;-2.20;1.80
5134;DHT22;2585;48.696;10.066;2023-03-01T05:57:50;-2.20;2.70
5134;DHT22;2585;48.696;10.066;2023-03-01T06:00:19;-2.20;3.60
5134;DHT22;2585;48.696;10.066;2023-03-01T06:02:46;-2.30;3.60
5134;DHT22;2585;48.696;10.066;2023-03-01T06:05:14;-2.30;4.20
5134;DHT22;2585;48.696;10.066;2023-03-01T06:07:41;-2.20;4.60
5134;DHT22;2585;48.696;10.066;2023-03-01T06:10:09;-2.30;4.90
5134;DHT22;2585;48.696;10.066;2023-03-01T06:12:37;-2.30;5.00
5134;DHT22;2585;48.696;10.066;2023-03-01T06:15:05;-2.30;5.50
5134;DHT22;2585;48.696;10.066;2023-03-01T06:17:33;-2.30;6.80
5134;DHT22;2585;48.696;10.066;2023-03-01T06:22:35;-2.30;7.10
5134;DHT22;2585;48.696;10.066;2023-03-01T06:25:03;-2.30;6.70
5134;DHT22;2585;48.696;10.066;2023-03-01T06:27:30;-2.30;6.60
5134;DHT22;2585;48.696;10.066;2023-03-01T06:29:56;-2.30;6.80
5134;DHT22;2585;48.696;10.066;2023-03-01T06:32:23;-2.30;6.90
5134;DHT22;2585;48.696;10.066;2023-03-01T06:34:50;-2.30;6.90
5134;DHT22;2585;48.696;10.066;2023-03-01T06:37:17;-2.30;7.00
5134;DHT22;2585;48.696;10.066;2023-03-01T06:39:44;-2.30;6.90
5134;DHT22;2585;48.696;10.066;2023-03-01T06:42:11;-2.30;7.00
5134;DHT22;2585;48.696;10.066;2023-03-01T06:44:37;-2.30;6.70
5134;DHT22;2585;48.696;10.066;2023-03-01T06:47:04;-2.30;6.60
5134;DHT22;2585;48.696;10.066;2023-03-01T06:49:31;-2.30;5.90
5134;DHT22;2585;48.696;10.066;2023-03-01T06:51:58;-2.20;5.40
5134;DHT22;2585;48.696;10.066;2023-03-01T06:54:25;-2.30;5.80
5134;DHT22;2585;48.696;10.066;2023-03-01T06:56:52;-2.20;5.80
5134;DHT22;2585;48.696;10.066;2023-03-01T06:59:19;-2.30;5.80
5134;DHT22;2585;48.696;10.066;2023-03-01T07:01:46;-2.20;6.40
5134;DHT22;2585;48.696;10.066;2023-03-01T07:04:13;-2.20;6.10
5134;DHT22;2585;48.696;10.066;2023-03-01T07:06:40;-2.20;5.50
5134;DHT22;2585;48.696;10.066;2023-03-01T07:09:07;-2.10;5.00
5134;DHT22;2585;48.696;10.066;2023-03-01T07:11:34;-2.10;4.10
5134;DHT22;2585;48.696;10.066;2023-03-01T07:14:01;-2.00;4.70
5134;DHT22;2585;48.696;10.066;2023-03-01T07:16:27;-2.00;2.90
5134;DHT22;2585;48.696;10.066;2023-03-01T07:18:54;-2.00;2.30
5134;DHT22;2585;48.696;10.066;2023-03-01T07:21:21;-1.90;2.10
5134;DHT22;2585;48.696;10.066;2023-03-01T07:23:48;-1.90;2.60
5134;DHT22;2585;48.696;10.066;2023-03-01T07:26:15;-1.80;2.40
5134;DHT22;2585;48.696;10.066;2023-03-01T07:28:42;-1.80;1.40
5134;DHT22;2585;48.696;10.066;2023-03-01T07:31:09;-1.70;1.00
5134;DHT22;2585;48.696;10.066;2023-03-01T07:33:35;-1.70;1.00
5134;DHT22;2585;48.696;10.066;2023-03-01T07:36:03;-1.70;1.00
5134;DHT22;2585;48.696;10.066;2023-03-01T07:38:30;-1.60;1.00
5134;DHT22;2585;48.696;10.066;2023-03-01T07:41:01;-1.60;1.00
5134;DHT22;2585;48.696;10.066;2023-03-01T07:43:29;-1.50;1.00
5134;DHT22;2585;48.696;10.066;2023-03-01T07:46:00;-1.40;1.00
5134;DHT22;2585;48.696;10.066;2023-03-01T07:48:29;-1.40;1.00
5134;DHT22;2585;48.696;10.066;2023-03-01T07:51:03;-1.20;1.00
5134;DHT22;2585;48.696;10.066;2023-03-01T07:53:31;-1.20;1.00
5134;DHT22;2585;48.696;10.066;2023-03-01T07:56:11;-1.10;1.00
5134;DHT22;2585;48.696;10.066;2023-03-01T07:58:40;-1.00;1.00
5134;DHT22;2585;48.696;10.066;2023-03-01T08:01:09;-0.90;1.00
5134;DHT22;2585;48.696;10.066;2023-03-01T08:03:37;-0.90;1.00
5134;DHT22;2585;48.696;10.066;2023-03-01T08:06:06;-0.80;1.00
5134;DHT22;2585;48.696;10.066;2023-03-01T08:08:33;-0.70;1.00
5134;DHT22;2585;48.696;10.066;2023-03-01T08:11:02;-0.60;1.00
5134;DHT22;2585;48.696;10.066;2023-03-01T08:13:30;-0.50;1.00
5134;DHT22;2585;48.696;10.066;2023-03-01T08:16:06;-0.40;1.00
5134;DHT22;2585;48.696;10.066;2023-03-01T08:18:33;-0.30;1.00
5134;DHT22;2585;48.696;10.066;2023-03-01T08:21:04;-0.20;1.00
5134;DHT22;2585;48.696;10.066;2023-03-01T08:23:34;-0.10;1.00
5134;DHT22;2585;48.696;10.066;2023-03-01T08:26:06;0.10;1.00
5134;DHT22;2585;48.696;10.066;2023-03-01T08:28:34;0.30;1.00
5134;DHT22;2585;48.696;10.066;2023-03-01T08:31:01;0.30;1.00
5134;DHT22;2585;48.696;10.066;2023-03-01T08:33:28;0.50;1.00
5134;DHT22;2585;48.696;10.066;2023-03-01T08:36:07;0.60;1.00
5134;DHT22;2585;48.696;10.066;2023-03-01T08:38:35;0.80;1.00
5134;DHT22;2585;48.696;10.066;2023-03-01T08:41:03;1.10;1.00
5134;DHT22;2585;48.696;10.066;2023-03-01T08:43:30;1.20;1.00
5134;DHT22;2585;48.696;10.066;2023-03-01T08:45:57;1.60;1.00
5134;DHT22;2585;48.696;10.066;2023-03-01T08:48:24;1.80;1.00
5134;DHT22;2585;48.696;10.066;2023-03-01T08:50:51;1.90;1.00
5134;DHT22;2585;48.696;10.066;2023-03-01T08:53:18;2.20;1.00
5134;DHT22;2585;48.696;10.066;2023-03-01T08:55:45;2.20;1.00
5134;DHT22;2585;48.696;10.066;2023-03-01T08:58:12;2.40;1.00
5134;DHT22;2585;48.696;10.066;2023-03-01T09:00:38;2.60;1.00
5134;DHT22;2585;48.696;10.066;2023-03-01T09:03:06;2.50;1.00
5134;DHT22;2585;48.696;10.066;2023-03-01T09:05:33;3.00;1.00
5134;DHT22;2585;48.696;10.066;2023-03-01T09:08:00;3.10;1.00
5134;DHT22;2585;48.696;10.066;2023-03-01T09:10:27;2.90;1.00
5134;DHT22;2585;48.696;10.066;2023-03-01T09:12:54;3.30;1.00
5134;DHT22;2585;48.696;10.066;2023-03-01T09:15:21;3.10;1.00
5134;DHT22;2585;48.696;10.066;2023-03-01T09:17:48;3.10;1.00
5134;DHT22;2585;48.696;10.066;2023-03-01T09:20:15;3.10;1.00
5134;DHT22;2585;48.696;10.066;2023-03-01T09:22:42;3.40;1.00
5134;DHT22;2585;48.696;10.066;2023-03-01T09:25:08;3.20;1.00
5134;DHT22;2585;48.696;10.066;2023-03-01T09:27:36;3.80;1.00
5134;DHT22;2585;48.696;10.066;2023-03-01T09:30:03;4.10;1.00
5134;DHT22;2585;48.696;10.066;2023-03-01T09:32:31;4.30;1.00
5134;DHT22;2585;48.696;10.066;2023-03-01T09:34:58;4.60;1.00
5134;DHT22;2585;48.696;10.066;2023-03-01T09:37:31;4.20;1.00
5134;DHT22;2585;48.696;10.066;2023-03-01T09:39:59;4.30;1.00
5134;DHT22;2585;48.696;10.066;2023-03-01T09:42:27;4.50;1.00
5134;DHT22;2585;48.696;10.066;2023-03-01T09:44:59;4.20;65.10
5134;DHT22;2585;48.696;10.066;2023-03-01T09:47:32;4.50;65.50
5134;DHT22;2585;48.696;10.066;2023-03-01T09:50:06;4.60;63.60
5134;DHT22;2585;48.696;10.066;2023-03-01T09:55:16;5.20;61.50
5134;DHT22;2585;48.696;10.066;2023-03-01T10:00:42;5.70;52.90
5134;DHT22;2585;48.696;10.066;2023-03-01T10:03:36;5.80;35.00
5134;DHT22;2585;48.696;10.066;2023-03-01T10:06:15;6.00;35.40
5134;DHT22;2585;48.696;10.066;2023-03-01T10:09:06;6.30;1.00
5134;DHT22;2585;48.696;10.066;2023-03-01T10:11:46;6.20;1.00
5134;DHT22;2585;48.696;10.066;2023-03-01T10:20:21;6.60;1.00
5134;DHT22;2585;48.696;10.066;2023-03-01T10:22:49;6.60;1.00
5134;DHT22;2585;48.696;10.066;2023-03-01T10:25:52;7.20;1.00
5134;DHT22;2585;48.696;10.066;2023-03-01T10:31:13;7.30;1.00
5134;DHT22;2585;48.696;10.066;2023-03-01T10:33:41;7.00;1.00
5134;DHT22;2585;48.696;10.066;2023-03-01T10:36:08;6.90;1.00
5134;DHT22;2585;48.696;10.066;2023-03-01T10:38:56;7.80;1.00
5134;DHT22;2585;48.696;10.066;2023-03-01T10:41:25;7.90;1.00
5134;DHT22;2585;48.696;10.066;2023-03-01T10:43:56;7.60;1.00
5134;DHT22;2585;48.696;10.066;2023-03-01T10:46:33;7.20;1.00
5134;DHT22;2585;48.696;10.066;2023-03-01T10:49:14;7.50;1.00
5134;DHT22;2585;48.696;10.066;2023-03-01T10:51:43;7.80;1.00
5134;DHT22;2585;48.696;10.066;2023-03-01T10:54:20;8.00;1.00
5134;DHT22;2585;48.696;10.066;2023-03-01T10:56:50;7.90;1.00
5134;DHT22;2585;48.696;10.066;2023-03-01T10:59:37;7.80;1.00
5134;DHT22;2585;48.696;10.066;2023-03-01T11:02:30;8.20;1.00
5134;DHT22;2585;48.696;10.066;2023-03-01T11:05:21;8.50;1.00
5134;DHT22;2585;48.696;10.066;2023-03-01T11:07:55;8.90;1.00
5134;DHT22;2585;48.696;10.066;2023-03-01T11:10:29;8.60;1.00
5134;DHT22;2585;48.696;10.066;2023-03-01T11:13:14;9.20;1.00
5134;DHT22;2585;48.696;10.066;2023-03-01T11:15:42;9.10;1.00
5134;DHT22;2585;48.696;10.066;2023-03-01T11:18:21;8.90;1.00
5134;DHT22;2585;48.696;10.066;2023-03-01T11:20:58;9.10;1.00
5134;DHT22;2585;48.696;10.066;2023-03-01T11:23:28;9.40;1.00
5134;DHT22;2585;48.696;10.066;2023-03-01T11:25:58;9.10;1.00
5134;DHT22;2585;48.696;10.066;2023-03-01T11:28:28;10.00;1.00
5134;DHT22;2585;48.696;10.066;2023-03-01T11:31:03;9.70;1.00
5134;DHT22;2585;48.696;10.066;2023-03-01T11:36:28;9.90;1.00
5134;DHT22;2585;48.696;10.066;2023-03-01T11:39:05;10.00;1.00
5134;DHT22;2585;48.696;10.066;2023-03-01T11:41:40;10.00;1.00
5134;DHT22;2585;48.696;10.066;2023-03-01T11:44:16;10.20;1.00
5134;DHT22;2585;48.696;10.066;2023-03-01T11:47:00;10.60;1.00
5134;DHT22;2585;48.696;10.066;2023-03-01T11:52:29;10.50;1.00
5134;DHT22;2585;48.696;10.066;2023-03-01T12:06:43;11.20;90.50
5134;DHT22;2585;48.696;10.066;2023-03-01T12:17:35;10.80;88.60
5134;DHT22;2585;48.696;10.066;2023-03-01T12:26:16;10.70;85.60
5134;DHT22;2585;48.696;10.066;2023-03-01T12:28:55;11.00;85.20
5134;DHT22;2585;48.696;10.066;2023-03-01T12:32:05;11.30;84.80
5134;DHT22;2585;48.696;10.066;2023-03-01T12:40:30;11.20;84.50
5134;DHT22;2585;48.696;10.066;2023-03-01T12:51:25;11.30;82.10
5134;DHT22;2585;48.696;10.066;2023-03-01T12:53:55;11.30;81.50
5134;DHT22;2585;48.696;10.066;2023-03-01T12:56:29;11.40;82.30
5134;DHT22;2585;48.696;10.066;2023-03-01T12:59:21;11.20;80.10
5134;DHT22;2585;48.696;10.066;2023-03-01T13:12:52;10.70;80.00
5134;DHT22;2585;48.696;10.066;2023-03-01T13:15:30;11.10;79.80
5134;DHT22;2585;48.696;10.066;2023-03-01T13:20:45;11.00;78.90
5134;DHT22;2585;48.696;10.066;2023-03-01T13:23:33;11.20;79.50
5134;DHT22;2585;48.696;10.066;2023-03-01T13:26:16;10.90;78.30
5134;DHT22;2585;48.696;10.066;2023-03-01T13:33:59;10.50;78.00
5134;DHT22;2585;48.696;10.066;2023-03-01T13:39:26;10.30;77.00
5134;DHT22;2585;48.696;10.066;2023-03-01T13:41:54;10.50;77.00
5134;DHT22;2585;48.696;10.066;2023-03-01T13:44:35;10.50;76.10
5134;DHT22;2585;48.696;10.066;2023-03-01T13:49:56;10.20;75.90
5134;DHT22;2585;48.696;10.066;2023-03-01T13:57:43;10.00;76.40
5134;DHT22;2585;48.696;10.066;2023-03-01T14:03:17;9.90;75.60
5134;DHT22;2585;48.696;10.066;2023-03-01T14:08:40;10.30;75.90
5134;DHT22;2585;48.696;10.066;2023-03-01T14:11:27;9.80;76.60
5134;DHT22;2585;48.696;10.066;2023-03-01T14:16:59;10.20;76.80
5134;DHT22;2585;48.696;10.066;2023-03-01T14:19:27;10.30;76.90
5134;DHT22;2585;48.696;10.066;2023-03-01T14:24:38;10.30;75.80
5134;DHT22;2585;48.696;10.066;2023-03-01T14:27:11;9.90;75.30
5134;DHT22;2585;48.696;10.066;2023-03-01T14:29:40;9.40;74.90
5134;DHT22;2585;48.696;10.066;2023-03-01T14:32:15;9.30;75.80
5134;DHT22;2585;48.696;10.066;2023-03-01T14:34:49;9.20;75.60
5134;DHT22;2585;48.696;10.066;2023-03-01T14:39:54;8.80;74.70
5134;DHT22;2585;48.696;10.066;2023-03-01T14:42:23;8.70;74.70
5134;DHT22;2585;48.696;10.066;2023-03-01T14:44:52;8.50;74.80
5134;DHT22;2585;48.696;10.066;2023-03-01T14:47:29;8.50;75.70
5134;DHT22;2585;48.696;10.066;2023-03-01T14:50:02;8.40;75.90
5134;DHT22;2585;48.696;10.066;2023-03-01T14:52:37;8.50;76.80
5134;DHT22;2585;48.696;10.066;2023-03-01T14:55:26;8.40;75.90
5134;DHT22;2585;48.696;10.066;2023-03-01T14:57:53;8.00;75.50
5134;DHT22;2585;48.696;10.066;2023-03-01T15:00:23;7.90;75.80
5134;DHT22;2585;48.696;10.066;2023-03-01T15:02:52;7.70;76.60
5134;DHT22;2585;48.696;10.066;2023-03-01T15:05:29;7.60;76.70
5134;DHT22;2585;48.696;10.066;2023-03-01T15:08:01;7.40;76.60
5134;DHT22;2585;48.696;10.066;2023-03-01T15:10:31;7.20;76.40
5134;DHT22;2585;48.696;10.066;2023-03-01T15:13:33;7.00;76.50
5134;DHT22;2585;48.696;10.066;2023-03-01T15:16:30;6.90;77.10
5134;DHT22;2585;48.696;10.066;2023-03-01T15:19:03;6.80;77.40
5134;DHT22;2585;48.696;10.066;2023-03-01T15:21:36;6.80;78.30
5134;DHT22;2585;48.696;10.066;2023-03-01T15:27:00;6.80;79.10
5134;DHT22;2585;48.696;10.066;2023-03-01T15:29:33;6.80;79.70
5134;DHT22;2585;48.696;10.066;2023-03-01T15:32:36;6.70;80.20
5134;DHT22;2585;48.696;10.066;2023-03-01T15:35:38;6.70;80.40
5134;DHT22;2585;48.696;10.066;2023-03-01T15:38:36;6.50;80.00
5134;DHT22;2585;48.696;10.066;2023-03-01T15:41:32;6.50;80.10
5134;DHT22;2585;48.696;10.066;2023-03-01T15:44:16;6.50;81.00
5134;DHT22;2585;48.696;10.066;2023-03-01T15:46:47;6.30;80.90
5134;DHT22;2585;48.696;10.066;2023-03-01T15:49:48;6.20;81.20
5134;DHT22;2585;48.696;10.066;2023-03-01T15:52:50;6.20;81.60
5134;DHT22;2585;48.696;10.066;2023-03-01T15:55:23;6.20;81.80
5134;DHT22;2585;48.696;10.066;2023-03-01T15:57:50;6.10;91.10
5134;DHT22;2585;48.696;10.066;2023-03-01T16:00:24;6.10;91.30
5134;DHT22;2585;48.696;10.066;2023-03-01T16:02:51;6.00;91.40
5134;DHT22;2585;48.696;10.066;2023-03-01T16:05:29;5.90;92.50
5134;DHT22;2585;48.696;10.066;2023-03-01T16:07:57;5.80;91.90
5134;DHT22;2585;48.696;10.066;2023-03-01T16:10:24;5.80;92.20
5134;DHT22;2585;48.696;10.066;2023-03-01T16:12:51;5.70;92.60
5134;DHT22;2585;48.696;10.066;2023-03-01T16:17:47;5.70;93.30
5134;DHT22;2585;48.696;10.066;2023-03-01T16:20:14;5.70;93.20
5134;DHT22;2585;48.696;10.066;2023-03-01T16:22:54;5.60;93.40
5134;DHT22;2585;48.696;10.066;2023-03-01T16:25:21;5.60;93.70
5134;DHT22;2585;48.696;10.066;2023-03-01T16:27:49;5.50;93.50
5134;DHT22;2585;48.696;10.066;2023-03-01T16:30:19;5.50;93.90
5134;DHT22;2585;48.696;10.066;2023-03-01T16:32:48;5.30;94.50
5134;DHT22;2585;48.696;10.066;2023-03-01T16:35:18;5.30;94.80
5134;DHT22;2585;48.696;10.066;2023-03-01T16:37:45;5.20;95.40
5134;DHT22;2585;48.696;10.066;2023-03-01T16:40:20;5.10;95.70
5134;DHT22;2585;48.696;10.066;2023-03-01T16:42:48;5.10;95.70
5134;DHT22;2585;48.696;10.066;2023-03-01T16:45:17;4.90;1.00
5134;DHT22;2585;48.696;10.066;2023-03-01T16:47:51;4.90;1.00
5134;DHT22;2585;48.696;10.066;2023-03-01T16:50:21;4.90;1.00
5134;DHT22;2585;48.696;10.066;2023-03-01T16:52:48;4.80;1.00
5134;DHT22;2585;48.696;10.066;2023-03-01T16:55:15;4.80;1.00
5134;DHT22;2585;48.696;10.066;2023-03-01T16:57:42;4.70;1.00
5134;DHT22;2585;48.696;10.066;2023-03-01T17:00:11;4.60;1.00
5134;DHT22;2585;48.696;10.066;2023-03-01T17:02:40;4.60;1.00
5134;DHT22;2585;48.696;10.066;2023-03-01T17:05:10;4.50;1.00
5134;DHT22;2585;48.696;10.066;2023-03-01T17:07:38;4.40;1.00
5134;DHT22;2585;48.696;10.066;2023-03-01T17:10:08;4.30;1.00
5134;DHT22;2585;48.696;10.066;2023-03-01T17:12:36;4.30;1.00
5134;DHT22;2585;48.696;10.066;2023-03-01T17:15:04;4.10;1.00
5134;DHT22;2585;48.696;10.066;2023-03-01T17:17:32;4.10;1.00
5134;DHT22;2585;48.696;10.066;2023-03-01T17:19:58;3.90;1.00
5134;DHT22;2585;48.696;10.066;2023-03-01T17:22:25;3.80;1.00
5134;DHT22;2585;48.696;10.066;2023-03-01T17:24:52;3.70;1.00
5134;DHT22;2585;48.696;10.066;2023-03-01T17:27:19;3.70;1.00
5134;DHT22;2585;48.696;10.066;2023-03-01T17:29:46;3.70;1.00
5134;DHT22;2585;48.696;10.066;2023-03-01T17:32:12;3.60;1.00
5134;DHT22;2585;48.696;10.066;2023-03-01T17:34:39;3.60;1.00
5134;DHT22;2585;48.696;10.066;2023-03-01T17:37:07;3.60;1.00
5134;DHT22;2585;48.696;10.066;2023-03-01T17:39:34;3.60;1.00
5134;DHT22;2585;48.696;10.066;2023-03-01T17:42:03;3.60;1.00
5134;DHT22;2585;48.696;10.066;2023-03-01T17:44:34;3.60;1.00
5134;DHT22;2585;48.696;10.066;2023-03-01T17:47:02;3.60;86.80
5134;DHT22;2585;48.696;10.066;2023-03-01T17:49:29;3.60;1.00
5134;DHT22;2585;48.696;10.066;2023-03-01T17:51:56;3.60;64.50
5134;DHT22;2585;48.696;10.066;2023-03-01T17:54:23;3.50;90.30
5134;DHT22;2585;48.696;10.066;2023-03-01T17:56:50;3.60;76.20
5134;DHT22;2585;48.696;10.066;2023-03-01T17:59:17;3.50;80.70
5134;DHT22;2585;48.696;10.066;2023-03-01T18:01:44;3.40;1.00
5134;DHT22;2585;48.696;10.066;2023-03-01T18:04:11;3.40;1.00
5134;DHT22;2585;48.696;10.066;2023-03-01T18:06:38;3.40;1.00
5134;DHT22;2585;48.696;10.066;2023-03-01T18:09:06;3.40;1.00
5134;DHT22;2585;48.696;10.066;2023-03-01T18:11:34;3.40;1.00
5134;DHT22;2585;48.696;10.066;2023-03-01T18:14:02;3.40;1.00
5134;DHT22;2585;48.696;10.066;2023-03-01T18:16:29;3.40;1.00
5134;DHT22;2585;48.696;10.066;2023-03-01T18:18:58;3.50;1.00
5134;DHT22;2585;48.696;10.066;2023-03-01T18:21:26;3.50;1.00
5134;DHT22;2585;48.696;10.066;2023-03-01T18:23:53;3.40;1.00
5134;DHT22;2585;48.696;10.066;2023-03-01T18:26:21;3.40;1.00
5134;DHT22;2585;48.696;10.066;2023-03-01T18:28:50;3.40;1.00